createdAt,value
2023-07-24T00:00:26.418Z,4.500
2023-07-24T00:01:27.472Z,4.100
2023-07-24T00:02:30.966Z,4.500
2023-07-24T00:03:26.958Z,4.200
2023-07-24T00:04:20.886Z,4.300
2023-07-24T00:05:30.623Z,4.500
2023-07-24T00:06:28.778Z,4.550
2023-07-24T00:07:23.653Z,4.400
2023-07-24T00:08:33.178Z,4.200
2023-07-24T00:09:26.987Z,4.450
2023-07-24T00:10:24.803Z,4.500
2023-07-24T00:11:21.881Z,4.350
2023-07-24T00:12:31.661Z,4.500
2023-07-24T00:13:22.276Z,4.100
2023-07-24T00:14:23.749Z,4.300
2023-07-24T00:15:34.176Z,4.200
2023-07-24T00:16:29.000Z,4.450
2023-07-24T00:17:24.811Z,3.700
2023-07-24T00:18:20.868Z,4.050
2023-07-24T00:19:30.914Z,4.300
2023-07-24T00:20:25.838Z,4.050
2023-07-24T00:21:22.744Z,4.050
2023-07-24T00:22:32.903Z,4.600
2023-07-24T00:23:34.383Z,4.300
2023-07-24T00:24:31.201Z,4.500
2023-07-24T00:25:23.476Z,4.300
2023-07-24T00:26:33.128Z,4.050
2023-07-24T00:27:28.453Z,4.200
2023-07-24T00:28:23.657Z,4.350
2023-07-24T00:29:33.926Z,4.250
2023-07-24T00:30:28.917Z,4.200
2023-07-24T00:31:24.246Z,4.200
2023-07-24T00:32:24.644Z,4.100
2023-07-24T00:33:20.906Z,4.000
2023-07-24T00:34:29.848Z,4.200
2023-07-24T00:35:23.130Z,4.150
2023-07-24T00:36:33.933Z,4.200
2023-07-24T00:37:28.939Z,4.200
2023-07-24T00:38:26.112Z,4.100
2023-07-24T00:39:21.206Z,4.000
2023-07-24T00:40:23.152Z,4.050
2023-07-24T00:41:28.416Z,4.000
2023-07-24T00:42:21.618Z,4.200
2023-07-24T00:43:33.828Z,4.300
2023-07-24T00:44:28.732Z,4.100
2023-07-24T00:45:30.056Z,4.500
2023-07-24T00:46:21.055Z,4.100
2023-07-24T00:47:24.641Z,4.050
2023-07-24T00:48:23.465Z,3.900
2023-07-24T00:49:22.932Z,4.100
2023-07-24T00:50:32.590Z,4.350
2023-07-24T00:51:31.837Z,4.200
2023-07-24T00:52:24.827Z,4.400
2023-07-24T00:53:22.859Z,3.700
2023-07-24T00:54:34.245Z,3.950
2023-07-24T00:55:22.661Z,3.700
2023-07-24T00:56:25.526Z,3.950
2023-07-24T00:57:37.686Z,3.850
2023-07-24T00:58:30.218Z,4.000
2023-07-24T00:59:24.709Z,4.100
2023-07-24T01:00:25.610Z,4.150
2023-07-24T01:08:13.289Z,4.050
2023-07-24T01:08:44.766Z,4.500
2023-07-24T01:09:44.101Z,4.300
2023-07-24T01:10:38.513Z,4.000
2023-07-24T01:11:27.708Z,4.000
2023-07-24T01:12:31.962Z,4.600
2023-07-24T01:13:27.167Z,4.100
2023-07-24T01:14:21.040Z,4.150
2023-07-24T01:19:36.906Z,4.500
2023-07-24T01:20:27.272Z,4.100
2023-07-24T01:21:21.075Z,4.600
2023-07-24T01:22:39.404Z,4.800
2023-07-24T01:23:45.122Z,4.500
2023-07-24T01:24:27.007Z,4.800
2023-07-24T01:25:26.210Z,4.850
2023-07-24T01:26:21.149Z,5.000
2023-07-24T01:27:25.157Z,4.700
2023-07-24T01:28:20.898Z,4.800
2023-07-24T01:29:20.035Z,4.700
2023-07-24T01:30:30.936Z,4.850
2023-07-24T01:31:24.534Z,4.900
2023-07-24T01:32:32.956Z,4.700
2023-07-24T01:33:21.589Z,4.500
2023-07-24T01:34:25.248Z,4.850
2023-07-24T01:35:21.379Z,4.700
2023-07-24T01:36:24.590Z,5.050
2023-07-24T01:37:29.076Z,5.050
2023-07-24T01:38:24.920Z,5.100
2023-07-24T01:39:38.554Z,4.600
2023-07-24T01:40:30.350Z,4.500
2023-07-24T01:41:24.833Z,4.700
2023-07-24T01:42:21.128Z,5.050
2023-07-24T01:43:31.447Z,4.750
2023-07-24T01:44:28.532Z,5.100
2023-07-24T01:45:23.291Z,4.700
2023-07-24T01:46:33.664Z,5.100
2023-07-24T01:47:34.951Z,4.850
2023-07-24T01:48:25.907Z,4.900
2023-07-24T01:49:23.237Z,4.750
2023-07-24T01:50:32.102Z,4.800
2023-07-24T01:51:26.880Z,4.800
2023-07-24T01:52:24.358Z,4.600
2023-07-24T01:53:33.584Z,4.800
2023-07-24T01:54:28.866Z,4.500
2023-07-24T01:55:29.470Z,4.750
2023-07-24T01:56:23.013Z,4.400
2023-07-24T01:57:32.022Z,4.400
2023-07-24T01:58:26.848Z,4.800
2023-07-24T01:59:25.465Z,4.600
2023-07-24T02:00:35.511Z,4.700
2023-07-24T02:01:42.795Z,4.900
2023-07-24T02:02:24.839Z,5.200
2023-07-24T02:03:20.873Z,4.700
2023-07-24T02:04:23.339Z,5.100
2023-07-24T02:05:29.653Z,5.150
2023-07-24T02:06:24.871Z,5.200
2023-07-24T02:07:34.811Z,5.050
2023-07-24T02:08:29.597Z,5.100
2023-07-24T02:09:25.318Z,5.100
2023-07-24T02:10:20.965Z,5.050
2023-07-24T02:11:24.011Z,5.150
2023-07-24T02:12:27.159Z,4.700
2023-07-24T02:13:22.732Z,4.900
2023-07-24T02:14:33.095Z,4.500
2023-07-24T02:15:31.635Z,4.750
2023-07-24T02:16:19.928Z,5.100
2023-07-24T02:17:22.675Z,4.950
2023-07-24T02:18:33.799Z,5.000
2023-07-24T02:19:21.613Z,5.300
2023-07-24T02:20:19.559Z,5.050
2023-07-24T02:21:34.190Z,4.850
2023-07-24T02:22:38.269Z,4.900
2023-07-24T02:23:26.415Z,5.250
2023-07-24T02:24:21.655Z,5.100
2023-07-24T02:25:31.838Z,5.100
2023-07-24T02:26:32.254Z,5.150
2023-07-24T02:27:23.155Z,5.000
2023-07-24T02:28:33.748Z,5.050
2023-07-24T02:29:29.735Z,5.200
2023-07-24T02:30:26.064Z,5.200
2023-07-24T02:31:21.802Z,5.200
2023-07-24T02:32:30.692Z,4.800
2023-07-24T02:33:31.256Z,5.000
2023-07-24T02:34:23.427Z,5.000
2023-07-24T02:35:34.455Z,4.700
2023-07-24T02:36:30.097Z,4.400
2023-07-24T02:37:22.696Z,4.450
2023-07-24T02:38:21.051Z,4.500
2023-07-24T02:39:30.922Z,4.100
2023-07-24T02:40:27.962Z,4.450
2023-07-24T02:41:26.134Z,4.650
2023-07-24T02:42:35.077Z,5.000
2023-07-24T02:43:33.371Z,5.050
2023-07-24T02:44:24.868Z,4.950
2023-07-24T02:45:22.432Z,4.300
2023-07-24T02:46:32.787Z,4.300
2023-07-24T02:47:29.402Z,5.000
2023-07-24T02:48:22.839Z,5.300
2023-07-24T02:49:25.757Z,5.150
2023-07-24T02:50:29.219Z,4.950
2023-07-24T02:51:26.013Z,4.800
2023-07-24T02:52:20.974Z,4.850
2023-07-24T02:53:31.181Z,5.100
2023-07-24T02:54:25.208Z,5.200
2023-07-24T02:55:22.880Z,5.050
2023-07-24T02:56:26.890Z,4.650
2023-07-24T02:57:21.567Z,4.400
2023-07-24T02:58:27.140Z,4.850
2023-07-24T02:59:20.821Z,5.400
2023-07-24T03:00:33.024Z,4.900
2023-07-24T03:01:27.141Z,4.700
2023-07-24T03:02:24.309Z,4.650
2023-07-24T03:03:20.437Z,4.850
2023-07-24T03:04:23.798Z,5.200
2023-07-24T03:05:21.408Z,5.150
2023-07-24T03:06:20.686Z,4.800
2023-07-24T03:07:30.913Z,4.550
2023-07-24T03:08:29.387Z,4.600
2023-07-24T03:09:23.127Z,4.900
2023-07-24T03:10:22.946Z,5.400
2023-07-24T03:11:31.919Z,4.950
2023-07-24T03:12:20.986Z,4.800
2023-07-24T03:13:22.989Z,5.050
2023-07-24T03:14:31.947Z,5.000
2023-07-24T03:15:27.007Z,4.600
2023-07-24T03:16:23.079Z,4.600
2023-07-24T03:17:27.347Z,4.800
2023-07-24T03:18:33.669Z,4.650
2023-07-24T03:19:24.989Z,4.200
2023-07-24T03:20:22.602Z,4.250
2023-07-24T03:21:32.707Z,4.450
2023-07-24T03:22:22.119Z,4.700
2023-07-24T03:23:25.109Z,4.400
2023-07-24T03:24:29.131Z,4.600
2023-07-24T03:25:35.645Z,4.700
2023-07-24T03:26:24.949Z,4.600
2023-07-24T03:27:21.705Z,5.100
2023-07-24T03:28:25.362Z,4.600
2023-07-24T03:29:28.954Z,5.050
2023-07-24T03:30:24.562Z,4.900
2023-07-24T03:31:35.568Z,4.850
2023-07-24T03:32:30.427Z,5.200
2023-07-24T03:33:19.286Z,4.850
2023-07-24T03:34:21.210Z,4.850
2023-07-24T03:35:26.498Z,4.900
2023-07-24T03:36:28.231Z,4.700
2023-07-24T03:37:23.137Z,4.700
2023-07-24T03:38:33.134Z,4.600
2023-07-24T03:39:27.471Z,4.850
2023-07-24T03:40:25.588Z,4.800
2023-07-24T03:41:22.900Z,4.900
2023-07-24T03:42:22.741Z,5.050
2023-07-24T03:43:26.704Z,5.100
2023-07-24T03:44:22.875Z,5.200
2023-07-24T03:45:33.168Z,5.800
2023-07-24T03:46:27.088Z,5.250
2023-07-24T03:47:24.785Z,5.200
2023-07-24T03:48:22.173Z,5.100
2023-07-24T03:49:26.630Z,5.150
2023-07-24T03:50:23.273Z,5.500
2023-07-24T03:51:22.744Z,5.450
2023-07-24T03:52:33.013Z,5.000
2023-07-24T03:53:29.032Z,4.900
2023-07-24T03:54:26.851Z,5.000
2023-07-24T03:55:23.541Z,5.100
2023-07-24T03:56:31.292Z,5.200
2023-07-24T03:57:24.000Z,5.100
2023-07-24T03:58:23.148Z,5.150
2023-07-24T03:59:33.039Z,5.300
2023-07-24T04:00:32.049Z,5.200
2023-07-24T04:01:25.188Z,5.350
2023-07-24T04:02:22.338Z,5.700
2023-07-24T04:03:32.376Z,5.400
2023-07-24T04:04:28.564Z,5.200
2023-07-24T04:05:23.043Z,5.350
2023-07-24T04:06:34.645Z,5.400
2023-07-24T04:07:25.604Z,5.300
2023-07-24T04:08:21.943Z,5.150
2023-07-24T04:09:21.323Z,4.500
2023-07-24T04:10:30.874Z,5.150
2023-07-24T04:11:32.178Z,4.700
2023-07-24T04:12:25.103Z,5.000
2023-07-24T04:13:32.642Z,4.750
2023-07-24T04:14:30.001Z,4.850
2023-07-24T04:15:24.918Z,4.800
2023-07-24T04:16:21.148Z,4.550
2023-07-24T04:17:31.685Z,4.600
2023-07-24T04:18:21.801Z,4.800
2023-07-24T04:19:23.178Z,4.550
2023-07-24T04:20:24.384Z,5.250
2023-07-24T04:21:32.283Z,5.500
2023-07-24T04:22:26.475Z,4.600
2023-07-24T04:23:21.578Z,5.250
2023-07-24T04:24:27.377Z,5.700
2023-07-24T04:25:29.579Z,5.750
2023-07-24T04:26:24.135Z,5.900
2023-07-24T04:27:28.622Z,5.550
2023-07-24T04:28:19.898Z,5.400
2023-07-24T04:29:24.932Z,5.300
2023-07-24T04:30:21.003Z,5.550
2023-07-24T04:31:31.902Z,4.550
2023-07-24T04:32:31.852Z,4.800
2023-07-24T04:33:25.024Z,5.100
2023-07-24T04:34:34.325Z,4.800
2023-07-24T04:35:25.200Z,5.300
2023-07-24T04:36:24.767Z,5.450
2023-07-24T04:37:20.964Z,5.500
2023-07-24T04:38:31.208Z,5.600
2023-07-24T04:39:30.735Z,5.300
2023-07-24T04:40:24.331Z,5.300
2023-07-24T04:41:29.485Z,5.400
2023-07-24T04:42:30.946Z,5.200
2023-07-24T04:43:21.186Z,5.600
2023-07-24T04:44:22.850Z,5.400
2023-07-24T04:45:31.532Z,5.200
2023-07-24T04:46:21.641Z,4.700
2023-07-24T04:47:23.346Z,5.550
2023-07-24T04:48:33.778Z,5.700
2023-07-24T04:49:32.236Z,5.300
2023-07-24T04:50:26.416Z,4.950
2023-07-24T04:51:21.546Z,5.100
2023-07-24T04:52:25.707Z,5.700
2023-07-24T04:53:27.612Z,5.700
2023-07-24T04:54:23.480Z,5.500
2023-07-24T04:55:20.806Z,5.800
2023-07-24T04:56:30.185Z,5.900
2023-07-24T04:57:31.853Z,5.300
2023-07-24T04:58:25.173Z,4.900
2023-07-24T04:59:30.915Z,5.150
2023-07-24T05:00:27.398Z,5.800
2023-07-24T05:01:24.685Z,4.850
2023-07-24T05:02:23.931Z,4.750
2023-07-24T05:03:21.425Z,5.000
2023-07-24T05:04:27.400Z,5.050
2023-07-24T05:05:21.247Z,4.900
2023-07-24T05:06:22.564Z,5.050
2023-07-24T05:07:27.505Z,4.900
2023-07-24T05:08:23.053Z,5.200
2023-07-24T05:09:28.278Z,5.650
2023-07-24T05:10:31.692Z,5.250
2023-07-24T05:11:25.426Z,5.000
2023-07-24T05:12:22.569Z,4.900
2023-07-24T05:13:23.923Z,5.000
2023-07-24T05:14:26.943Z,4.900
2023-07-24T05:15:22.935Z,5.350
2023-07-24T05:16:33.556Z,5.650
2023-07-24T05:17:32.003Z,6.000
2023-07-24T05:18:24.895Z,5.250
2023-07-24T05:19:22.295Z,5.000
2023-07-24T05:20:31.221Z,5.550
2023-07-24T05:21:21.757Z,5.100
2023-07-24T05:22:22.892Z,5.300
2023-07-24T05:23:33.326Z,5.400
2023-07-24T05:24:21.058Z,5.600
2023-07-24T05:25:25.387Z,5.600
2023-07-24T05:26:23.784Z,5.100
2023-07-24T05:27:33.740Z,5.500
2023-07-24T05:28:27.190Z,5.100
2023-07-24T05:29:22.804Z,5.300
2023-07-24T05:30:35.716Z,5.600
2023-07-24T05:31:24.288Z,5.500
2023-07-24T05:32:26.689Z,6.200
2023-07-24T05:33:21.003Z,5.800
2023-07-24T05:34:36.329Z,6.000
2023-07-24T05:35:30.800Z,6.400
2023-07-24T05:36:23.282Z,5.750
2023-07-24T05:37:25.109Z,6.600
2023-07-24T05:38:27.995Z,5.450
2023-07-24T05:39:26.027Z,6.300
2023-07-24T05:40:24.005Z,5.600
2023-07-24T05:41:34.408Z,6.200
2023-07-24T05:42:20.758Z,5.900
2023-07-24T05:43:28.430Z,5.750
2023-07-24T05:44:19.398Z,6.150
2023-07-24T05:45:30.625Z,6.400
2023-07-24T05:46:25.208Z,5.800
2023-07-24T05:47:22.890Z,5.600
2023-07-24T05:48:23.729Z,5.900
2023-07-24T05:49:27.220Z,6.450
2023-07-24T05:50:24.282Z,5.800
2023-07-24T05:51:25.067Z,5.450
2023-07-24T05:52:31.555Z,6.200
2023-07-24T05:53:26.154Z,5.850
2023-07-24T05:54:22.359Z,6.100
2023-07-24T05:55:32.290Z,6.250
2023-07-24T05:56:28.043Z,6.500
2023-07-24T05:57:23.077Z,5.900
2023-07-24T05:58:32.897Z,5.800
2023-07-24T05:59:22.781Z,5.900
2023-07-24T06:00:22.736Z,6.200
2023-07-24T06:01:21.166Z,6.050
2023-07-24T06:02:31.340Z,6.400
2023-07-24T06:03:30.221Z,5.850
2023-07-24T06:04:23.194Z,5.600
2023-07-24T06:05:26.375Z,6.100
2023-07-24T06:06:21.509Z,5.300
2023-07-24T06:07:24.926Z,6.200
2023-07-24T06:08:23.993Z,5.900
2023-07-24T06:09:32.586Z,5.050
2023-07-24T06:10:28.970Z,5.500
2023-07-24T06:11:23.487Z,6.000
2023-07-24T06:12:34.740Z,6.150
2023-07-24T06:13:25.590Z,6.500
2023-07-24T06:14:24.844Z,6.500
2023-07-24T06:15:20.991Z,6.100
2023-07-24T06:16:23.073Z,5.850
2023-07-24T06:17:27.343Z,5.700
2023-07-24T06:18:22.887Z,6.200
2023-07-24T06:19:33.302Z,6.100
2023-07-24T06:20:35.416Z,6.100
2023-07-24T06:21:26.300Z,6.100
2023-07-24T06:22:21.002Z,5.850
2023-07-24T06:23:31.626Z,5.950
2023-07-24T06:24:27.333Z,5.600
2023-07-24T06:25:23.344Z,5.750
2023-07-24T06:26:34.330Z,5.900
2023-07-24T06:27:34.824Z,5.550
2023-07-24T06:28:26.824Z,5.900
2023-07-24T06:29:23.532Z,5.800
2023-07-24T06:30:31.321Z,5.650
2023-07-24T06:31:27.203Z,5.850
2023-07-24T06:32:24.634Z,6.200
2023-07-24T06:33:23.113Z,6.000
2023-07-24T06:34:37.516Z,6.300
2023-07-24T06:35:26.749Z,5.950
2023-07-24T06:36:23.367Z,5.700
2023-07-24T06:37:23.078Z,6.200
2023-07-24T06:38:30.442Z,6.150
2023-07-24T06:39:25.041Z,5.900
2023-07-24T06:40:34.110Z,6.200
2023-07-24T06:41:47.665Z,6.000
2023-07-24T06:42:27.034Z,6.300
2023-07-24T06:43:22.396Z,6.000
2023-07-24T06:44:20.693Z,5.950
2023-07-24T06:45:30.831Z,6.000
2023-07-24T06:46:23.611Z,6.700
2023-07-24T06:47:23.863Z,6.150
2023-07-24T06:48:46.837Z,6.250
2023-07-24T06:49:27.283Z,6.300
2023-07-24T06:50:21.107Z,6.300
2023-07-24T06:51:26.209Z,6.000
2023-07-24T06:52:22.185Z,6.300
2023-07-24T06:53:23.126Z,6.200
2023-07-24T06:54:26.433Z,6.500
2023-07-24T06:55:45.570Z,6.250
2023-07-24T06:56:26.557Z,6.000
2023-07-24T06:57:20.923Z,6.300
2023-07-24T06:58:20.787Z,5.750
2023-07-24T06:59:23.534Z,6.350
2023-07-24T07:00:19.607Z,6.500
2023-07-24T07:01:23.095Z,6.400
2023-07-24T07:02:36.196Z,5.950
2023-07-24T07:03:24.899Z,5.600
2023-07-24T07:04:21.475Z,6.200
2023-07-24T07:05:32.857Z,5.900
2023-07-24T07:06:28.889Z,6.350
2023-07-24T07:07:27.109Z,6.000
2023-07-24T07:08:34.714Z,5.350
2023-07-24T07:09:30.869Z,5.950
2023-07-24T07:10:26.843Z,6.400
2023-07-24T07:11:20.984Z,5.900
2023-07-24T07:12:26.524Z,5.550
2023-07-24T07:13:36.366Z,5.800
2023-07-24T07:14:22.872Z,6.500
2023-07-24T07:15:20.469Z,6.050
2023-07-24T07:16:32.924Z,6.300
2023-07-24T07:17:25.146Z,6.250
2023-07-24T07:18:22.717Z,6.700
2023-07-24T07:19:33.773Z,6.650
2023-07-24T07:20:27.157Z,6.000
2023-07-24T07:21:28.221Z,6.250
2023-07-24T07:22:19.564Z,6.150
2023-07-24T07:23:24.038Z,6.400
2023-07-24T07:24:26.247Z,5.850
2023-07-24T07:25:21.298Z,6.600
2023-07-24T07:26:31.554Z,6.600
2023-07-24T07:27:28.734Z,6.200
2023-07-24T07:28:23.391Z,5.800
2023-07-24T07:29:24.880Z,6.150
2023-07-24T07:30:21.769Z,6.550
2023-07-24T07:31:25.177Z,5.800
2023-07-24T07:32:21.196Z,6.700
2023-07-24T07:33:32.903Z,6.750
2023-07-24T07:34:21.844Z,6.800
2023-07-24T07:35:27.420Z,6.550
2023-07-24T07:36:28.036Z,5.850
2023-07-24T07:37:20.599Z,5.700
2023-07-24T07:38:26.697Z,6.150
2023-07-24T07:39:21.082Z,5.950
2023-07-24T07:40:32.786Z,5.800
2023-07-24T07:41:31.899Z,6.000
2023-07-24T07:42:23.137Z,6.000
2023-07-24T07:43:33.346Z,6.300
2023-07-24T07:44:26.780Z,6.300
2023-07-24T07:45:25.438Z,6.400
2023-07-24T07:46:22.657Z,6.400
2023-07-24T07:47:31.451Z,6.700
2023-07-24T07:48:30.009Z,6.200
2023-07-24T07:49:24.610Z,6.350
2023-07-24T07:50:37.796Z,6.350
2023-07-24T07:51:28.936Z,6.300
2023-07-24T07:52:21.928Z,6.200
2023-07-24T07:53:21.096Z,6.500
2023-07-24T07:54:31.389Z,6.600
2023-07-24T07:55:32.258Z,6.200
2023-07-24T07:56:22.989Z,6.100
2023-07-24T07:57:21.344Z,6.100
2023-07-24T07:58:34.581Z,6.400
2023-07-24T07:59:25.524Z,6.100
2023-07-24T08:00:23.824Z,6.050
2023-07-24T08:01:33.519Z,6.400
2023-07-24T08:02:28.839Z,6.400
2023-07-24T08:03:26.875Z,6.100
2023-07-24T08:04:35.022Z,6.550
2023-07-24T08:05:29.228Z,6.200
2023-07-24T08:06:27.541Z,6.350
2023-07-24T08:07:22.527Z,6.550
2023-07-24T08:08:21.976Z,6.200
2023-07-24T08:09:31.552Z,6.450
2023-07-24T08:10:26.373Z,6.500
2023-07-24T08:11:33.152Z,6.200
2023-07-24T08:12:32.934Z,6.350
2023-07-24T08:13:25.257Z,6.800
2023-07-24T08:14:21.939Z,6.150
2023-07-24T08:15:20.071Z,5.900
2023-07-24T08:16:27.270Z,6.100
2023-07-24T08:17:25.437Z,6.200
2023-07-24T08:18:34.552Z,6.150
2023-07-24T08:19:30.425Z,6.300
2023-07-24T08:20:28.335Z,7.100
2023-07-24T08:21:21.271Z,6.800
2023-07-24T08:22:23.687Z,6.800
2023-07-24T08:23:23.353Z,6.950
2023-07-24T08:24:23.151Z,8.100
2023-07-24T08:25:32.969Z,7.650
2023-07-24T08:26:33.209Z,7.050
2023-07-24T08:27:25.265Z,7.400
2023-07-24T08:28:23.065Z,8.150
2023-07-24T08:29:32.803Z,8.100
2023-07-24T08:30:21.642Z,6.900
2023-07-24T08:31:24.638Z,8.300
2023-07-24T08:32:33.468Z,8.400
2023-07-24T08:33:45.669Z,7.850
2023-07-24T08:34:27.130Z,8.100
2023-07-24T08:35:21.159Z,7.750
2023-07-24T08:36:32.924Z,8.000
2023-07-24T08:37:33.129Z,6.950
2023-07-24T08:38:24.560Z,7.200
2023-07-24T08:39:33.382Z,8.150
2023-07-24T08:40:31.097Z,8.300
2023-07-24T08:41:26.229Z,8.150
2023-07-24T08:42:22.175Z,8.100
2023-07-24T08:43:35.560Z,8.250
2023-07-24T08:44:31.569Z,8.300
2023-07-24T08:45:24.577Z,9.000
2023-07-24T08:46:23.713Z,7.050
2023-07-24T08:47:29.407Z,6.750
2023-07-24T08:48:29.804Z,7.800
2023-07-24T08:49:21.112Z,8.000
2023-07-24T08:50:31.237Z,7.700
2023-07-24T08:51:30.041Z,8.100
2023-07-24T08:52:35.865Z,8.200
2023-07-24T08:53:26.099Z,8.700
2023-07-24T08:54:30.788Z,7.350
2023-07-24T08:55:27.333Z,8.000
2023-07-24T08:56:20.925Z,8.200
2023-07-24T08:57:24.063Z,9.400
2023-07-24T08:58:31.867Z,8.350
2023-07-24T08:59:23.439Z,8.600
2023-07-24T09:00:22.725Z,8.700
2023-07-24T09:01:22.928Z,8.400
2023-07-24T09:02:25.324Z,6.700
2023-07-24T09:03:21.456Z,7.150
2023-07-24T09:04:31.036Z,6.400
2023-07-24T09:05:31.234Z,6.850
2023-07-24T09:06:24.634Z,7.950
2023-07-24T09:07:29.318Z,7.350
2023-07-24T09:08:23.418Z,8.600
2023-07-24T09:09:20.049Z,8.650
2023-07-24T09:10:21.440Z,8.600
2023-07-24T09:11:35.727Z,8.550
2023-07-24T09:12:27.421Z,8.700
2023-07-24T09:13:26.928Z,8.550
2023-07-24T09:14:35.420Z,8.350
2023-07-24T09:15:25.704Z,8.900
2023-07-24T09:16:26.509Z,9.300
2023-07-24T09:17:21.189Z,9.250
2023-07-24T09:18:32.648Z,9.200
2023-07-24T09:19:26.682Z,9.950
2023-07-24T09:20:32.602Z,9.500
2023-07-24T09:21:34.632Z,8.900
2023-07-24T09:22:29.870Z,8.400
2023-07-24T09:23:22.151Z,8.800
2023-07-24T09:24:21.941Z,7.500
2023-07-24T09:25:32.303Z,8.400
2023-07-24T09:26:25.116Z,8.400
2023-07-24T09:27:24.485Z,7.400
2023-07-24T09:28:19.164Z,6.950
2023-07-24T09:29:31.562Z,6.500
2023-07-24T09:30:26.688Z,6.900
2023-07-24T09:31:21.024Z,7.050
2023-07-24T09:32:31.322Z,7.200
2023-07-24T09:33:30.019Z,7.600
2023-07-24T09:34:23.225Z,7.850
2023-07-24T09:35:21.314Z,7.700
2023-07-24T09:36:31.179Z,7.000
2023-07-24T09:37:20.728Z,6.200
2023-07-24T09:38:23.566Z,6.450
2023-07-24T09:39:24.461Z,5.850
2023-07-24T09:40:29.271Z,6.900
2023-07-24T09:41:23.359Z,6.600
2023-07-24T09:42:18.959Z,6.750
2023-07-24T09:43:39.810Z,6.000
2023-07-24T09:44:27.784Z,5.850
2023-07-24T09:45:23.367Z,6.100
2023-07-24T09:46:29.287Z,6.100
2023-07-24T09:47:52.095Z,6.150
2023-07-24T09:48:43.248Z,6.550
2023-07-24T09:49:20.774Z,6.700
2023-07-24T09:50:32.205Z,6.300
2023-07-24T09:51:26.844Z,5.600
2023-07-24T09:52:21.389Z,5.500
2023-07-24T09:53:26.580Z,6.100
2023-07-24T09:54:24.180Z,5.700
2023-07-24T09:55:23.366Z,5.500
2023-07-24T09:56:19.729Z,5.800
2023-07-24T09:57:43.240Z,5.500
2023-07-24T09:58:26.904Z,5.600
2023-07-24T09:59:21.639Z,5.700
2023-07-24T10:00:26.431Z,5.300
2023-07-24T10:01:21.361Z,5.750
2023-07-24T10:02:24.844Z,5.700
2023-07-24T10:03:19.365Z,5.500
2023-07-24T10:04:30.698Z,5.900
2023-07-24T10:05:25.105Z,5.500
2023-07-24T10:06:21.289Z,5.100
2023-07-24T10:07:30.948Z,5.300
2023-07-24T10:08:23.489Z,5.600
2023-07-24T10:09:30.812Z,6.100
2023-07-24T10:10:19.721Z,5.850
2023-07-24T10:11:29.357Z,5.700
2023-07-24T10:12:26.717Z,5.300
2023-07-24T10:13:22.699Z,4.800
2023-07-24T10:14:30.968Z,5.300
2023-07-24T10:15:32.374Z,5.450
2023-07-24T10:16:24.305Z,5.050
2023-07-24T10:17:20.669Z,5.500
2023-07-24T10:18:27.259Z,5.500
2023-07-24T10:19:26.980Z,5.500
2023-07-24T10:20:22.330Z,5.250
2023-07-24T10:21:31.656Z,5.000
2023-07-24T10:22:27.102Z,5.400
2023-07-24T10:23:24.721Z,4.700
2023-07-24T10:24:35.472Z,4.850
2023-07-24T10:25:21.113Z,4.500
2023-07-24T10:26:26.272Z,5.200
2023-07-24T10:27:21.583Z,5.150
2023-07-24T10:28:31.542Z,5.150
2023-07-24T10:29:29.250Z,5.400
2023-07-24T10:30:34.553Z,4.800
2023-07-24T10:31:26.073Z,5.100
2023-07-24T10:32:24.120Z,4.550
2023-07-24T10:33:25.504Z,5.600
2023-07-24T10:34:21.329Z,5.300
2023-07-24T10:35:31.262Z,5.050
2023-07-24T10:36:31.748Z,5.400
2023-07-24T10:37:23.668Z,5.000
2023-07-24T10:38:20.613Z,4.900
2023-07-24T10:39:31.466Z,5.150
2023-07-24T10:40:24.379Z,4.100
2023-07-24T10:41:21.410Z,4.850
2023-07-24T10:42:21.744Z,4.900
2023-07-24T10:43:31.848Z,4.800
2023-07-24T10:44:23.426Z,5.000
2023-07-24T10:45:18.838Z,4.900
2023-07-24T10:46:24.389Z,4.750
2023-07-24T10:47:25.315Z,4.900
2023-07-24T10:48:21.348Z,4.600
2023-07-24T10:49:25.591Z,4.600
2023-07-24T10:50:31.118Z,4.700
2023-07-24T10:51:23.330Z,4.900
2023-07-24T10:52:21.309Z,4.650
2023-07-24T10:53:19.628Z,4.400
2023-07-24T10:54:19.474Z,4.200
2023-07-24T10:55:23.300Z,4.650
2023-07-24T10:56:32.122Z,5.250
2023-07-24T10:57:23.509Z,4.600
2023-07-24T10:58:25.371Z,4.900
2023-07-24T10:59:19.810Z,4.800
2023-07-24T11:00:23.768Z,4.900
2023-07-24T11:01:25.254Z,5.100
2023-07-24T11:02:21.221Z,5.000
2023-07-24T11:03:21.231Z,5.050
2023-07-24T11:04:31.379Z,5.000
2023-07-24T11:05:23.122Z,4.800
2023-07-24T11:06:20.800Z,4.750
2023-07-24T11:07:26.903Z,5.000
2023-07-24T11:08:20.367Z,4.600
2023-07-24T11:09:21.262Z,5.200
2023-07-24T11:10:25.445Z,4.600
2023-07-24T11:11:20.715Z,4.800
2023-07-24T11:12:24.811Z,4.800
2023-07-24T11:13:19.162Z,4.600
2023-07-24T11:14:25.350Z,3.900
2023-07-24T11:15:26.274Z,4.350
2023-07-24T11:16:21.430Z,4.350
2023-07-24T11:17:31.368Z,4.800
2023-07-24T11:18:24.836Z,4.450
2023-07-24T11:19:22.997Z,4.400
2023-07-24T11:20:20.987Z,4.600
2023-07-24T11:21:34.877Z,4.500
2023-07-24T11:22:25.582Z,5.300
2023-07-24T11:23:24.130Z,4.750
2023-07-24T11:24:21.887Z,5.050
2023-07-24T11:25:29.703Z,5.400
2023-07-24T11:26:23.592Z,5.000
2023-07-24T11:27:18.993Z,5.100
2023-07-24T11:28:31.336Z,5.550
2023-07-24T11:29:22.254Z,5.150
2023-07-24T11:30:22.301Z,5.200
2023-07-24T11:31:34.357Z,5.500
2023-07-24T11:32:30.313Z,5.400
2023-07-24T11:33:23.367Z,5.100
2023-07-24T11:34:20.253Z,5.200
2023-07-24T11:35:32.657Z,5.100
2023-07-24T11:36:21.611Z,4.900
2023-07-24T11:37:21.552Z,5.000
2023-07-24T11:38:32.951Z,5.350
2023-07-24T11:39:22.603Z,5.400
2023-07-24T11:40:19.728Z,5.250
2023-07-24T11:41:20.255Z,5.500
2023-07-24T11:42:25.959Z,5.100
2023-07-24T11:43:30.829Z,5.500
2023-07-24T11:44:21.446Z,6.000
2023-07-24T11:45:33.765Z,5.650
2023-07-24T11:46:32.129Z,5.650
2023-07-24T11:47:19.658Z,5.400
2023-07-24T11:48:19.402Z,5.600
2023-07-24T11:49:44.832Z,5.100
2023-07-24T11:50:26.929Z,5.100
2023-07-24T11:51:21.227Z,5.300
2023-07-24T11:52:32.067Z,5.500
2023-07-24T11:53:23.927Z,5.300
2023-07-24T11:54:28.364Z,4.900
2023-07-24T11:55:21.018Z,4.800
2023-07-24T11:56:22.969Z,5.050
2023-07-24T11:57:25.545Z,4.650
2023-07-24T11:58:22.579Z,4.700
2023-07-24T11:59:27.527Z,4.900
2023-07-24T12:00:32.239Z,4.400
2023-07-24T12:01:23.081Z,4.500
2023-07-24T12:02:20.516Z,4.450
2023-07-24T12:03:26.924Z,4.450
2023-07-24T12:04:25.722Z,4.100
2023-07-24T12:05:25.398Z,4.850
2023-07-24T12:06:33.358Z,4.550
2023-07-24T12:07:31.415Z,4.600
2023-07-24T12:08:23.145Z,4.400
2023-07-24T12:09:21.112Z,4.550
2023-07-24T12:10:23.233Z,4.900
2023-07-24T12:11:23.738Z,5.000
2023-07-24T12:12:20.953Z,4.900
2023-07-24T12:13:31.250Z,4.200
2023-07-24T12:14:30.065Z,3.300
2023-07-24T12:15:23.441Z,3.200
2023-07-24T12:16:20.201Z,2.800
2023-07-24T12:17:22.290Z,2.800
2023-07-24T12:18:26.442Z,2.800
2023-07-24T12:19:20.944Z,3.000
2023-07-24T12:20:31.374Z,2.800
2023-07-24T12:21:22.071Z,2.700
2023-07-24T12:22:23.589Z,2.600
2023-07-24T12:23:19.160Z,2.500
2023-07-24T12:24:27.715Z,2.400
2023-07-24T12:25:27.148Z,2.450
2023-07-24T12:26:23.530Z,2.600
2023-07-24T12:27:26.708Z,2.350
2023-07-24T12:28:27.308Z,2.400
2023-07-24T12:29:23.550Z,2.300
2023-07-24T12:30:23.146Z,2.600
2023-07-24T12:31:45.592Z,2.450
2023-07-24T12:32:25.222Z,2.700
2023-07-24T12:33:21.436Z,2.650
2023-07-24T12:34:21.302Z,2.500
2023-07-24T12:35:30.921Z,2.900
2023-07-24T12:36:23.362Z,2.700
2023-07-24T12:37:21.301Z,2.750
2023-07-24T12:38:22.309Z,2.700
2023-07-24T12:39:26.212Z,2.900
2023-07-24T12:40:21.349Z,2.700
2023-07-24T12:41:27.634Z,3.000
2023-07-24T12:42:30.864Z,2.900
2023-07-24T12:43:24.842Z,2.900
2023-07-24T12:44:22.298Z,3.000
2023-07-24T12:45:20.688Z,2.900
2023-07-24T12:46:25.165Z,3.300
2023-07-24T12:47:26.309Z,2.950
2023-07-24T12:48:31.397Z,3.250
2023-07-24T12:49:21.118Z,3.500
2023-07-24T12:50:23.140Z,3.300
2023-07-24T12:51:19.523Z,3.200
2023-07-24T12:52:25.126Z,3.550
2023-07-24T12:53:28.186Z,3.200
2023-07-24T12:54:25.025Z,3.500
2023-07-24T12:55:24.616Z,3.300
2023-07-24T12:56:27.552Z,3.300
2023-07-24T12:57:21.040Z,3.600
2023-07-24T12:58:19.105Z,3.550
2023-07-24T12:59:31.441Z,3.550
2023-07-24T13:00:25.579Z,3.500
2023-07-24T13:01:21.125Z,3.850
2023-07-24T13:02:24.564Z,3.700